sensor_id;sensor_type;location;lat;lon;timestamp;pressure;altitude;pressure_sealevel;temperature;humidity
42169;BME280;27838;43.858;25.974;2023-09-12T00:00:05;101096.53;;;23.54;41.48
42169;BME280;27838;43.858;25.974;2023-09-12T00:02:32;101090.91;;;23.61;41.27
42169;BME280;27838;43.858;25.974;2023-09-12T00:04:59;101098.66;;;23.65;41.29
42169;BME280;27838;43.858;25.974;2023-09-12T00:07:25;101100.47;;;23.65;41.08
42169;BME280;27838;43.858;25.974;2023-09-12T00:09:52;101102.09;;;23.67;41.02
42169;BME280;27838;43.858;25.974;2023-09-12T00:12:23;101100.00;;;23.74;40.94
42169;BME280;27838;43.858;25.974;2023-09-12T00:14:50;101100.78;;;23.76;40.85
42169;BME280;27838;43.858;25.974;2023-09-12T00:17:17;101099.78;;;23.79;40.91
42169;BME280;27838;43.858;25.974;2023-09-12T00:19:43;101093.50;;;23.80;40.80
42169;BME280;27838;43.858;25.974;2023-09-12T00:22:10;101098.72;;;23.83;40.99
42169;BME280;27838;43.858;25.974;2023-09-12T00:24:37;101098.72;;;23.83;41.15
42169;BME280;27838;43.858;25.974;2023-09-12T00:27:04;101098.91;;;23.78;41.30
42169;BME280;27838;43.858;25.974;2023-09-12T00:29:31;101099.88;;;23.77;40.99
42169;BME280;27838;43.858;25.974;2023-09-12T00:31:57;101102.38;;;23.80;40.89
42169;BME280;27838;43.858;25.974;2023-09-12T00:34:24;101098.84;;;23.80;41.11
42169;BME280;27838;43.858;25.974;2023-09-12T00:36:50;101100.72;;;23.78;41.09
42169;BME280;27838;43.858;25.974;2023-09-12T00:39:17;101101.88;;;23.72;41.19
42169;BME280;27838;43.858;25.974;2023-09-12T00:41:44;101097.66;;;23.68;41.06
42169;BME280;27838;43.858;25.974;2023-09-12T00:44:10;101103.00;;;23.68;41.25
42169;BME280;27838;43.858;25.974;2023-09-12T00:46:38;101104.69;;;23.69;40.88
42169;BME280;27838;43.858;25.974;2023-09-12T00:49:06;101095.94;;;23.67;41.20
42169;BME280;27838;43.858;25.974;2023-09-12T00:51:34;101095.06;;;23.66;41.18
42169;BME280;27838;43.858;25.974;2023-09-12T00:54:01;101103.91;;;23.67;41.15
42169;BME280;27838;43.858;25.974;2023-09-12T00:56:28;101112.81;;;23.66;41.08
42169;BME280;27838;43.858;25.974;2023-09-12T00:58:55;101111.25;;;23.62;41.34
42169;BME280;27838;43.858;25.974;2023-09-12T01:01:22;101108.81;;;23.57;41.61
42169;BME280;27838;43.858;25.974;2023-09-12T01:03:50;101113.66;;;23.49;42.46
42169;BME280;27838;43.858;25.974;2023-09-12T01:06:19;101108.63;;;23.43;42.48
42169;BME280;27838;43.858;25.974;2023-09-12T01:08:47;101117.69;;;23.38;42.34
42169;BME280;27838;43.858;25.974;2023-09-12T01:11:13;101124.88;;;23.36;43.68
42169;BME280;27838;43.858;25.974;2023-09-12T01:13:40;101120.69;;;23.31;44.46
42169;BME280;27838;43.858;25.974;2023-09-12T01:16:07;101120.78;;;23.29;44.74
42169;BME280;27838;43.858;25.974;2023-09-12T01:18:33;101122.56;;;23.29;45.03
42169;BME280;27838;43.858;25.974;2023-09-12T01:29:20;101122.69;;;23.26;45.54
42169;BME280;27838;43.858;25.974;2023-09-12T01:31:47;101119.25;;;23.24;45.44
42169;BME280;27838;43.858;25.974;2023-09-12T01:34:15;101118.34;;;23.25;45.31
42169;BME280;27838;43.858;25.974;2023-09-12T01:36:42;101121.97;;;23.22;45.45
42169;BME280;27838;43.858;25.974;2023-09-12T01:39:08;101104.59;;;23.15;45.43
42169;BME280;27838;43.858;25.974;2023-09-12T01:41:39;101116.91;;;23.17;45.48
42169;BME280;27838;43.858;25.974;2023-09-12T01:44:08;101124.88;;;23.17;45.34
42169;BME280;27838;43.858;25.974;2023-09-12T01:46:36;101126.75;;;23.15;45.46
42169;BME280;27838;43.858;25.974;2023-09-12T01:49:04;101128.44;;;23.16;45.20
42169;BME280;27838;43.858;25.974;2023-09-12T01:51:32;101125.88;;;23.15;45.13
42169;BME280;27838;43.858;25.974;2023-09-12T01:54:00;101118.25;;;23.07;45.09
42169;BME280;27838;43.858;25.974;2023-09-12T01:56:27;101124.53;;;23.05;45.14
42169;BME280;27838;43.858;25.974;2023-09-12T01:58:54;101124.63;;;23.03;45.22
42169;BME280;27838;43.858;25.974;2023-09-12T02:01:21;101125.69;;;22.99;44.95
42169;BME280;27838;43.858;25.974;2023-09-12T02:03:47;101124.03;;;22.96;44.76
42169;BME280;27838;43.858;25.974;2023-09-12T02:06:14;101129.41;;;22.95;44.59
42169;BME280;27838;43.858;25.974;2023-09-12T02:08:40;101128.63;;;22.93;44.74
42169;BME280;27838;43.858;25.974;2023-09-12T02:11:07;101135.00;;;22.89;45.04
42169;BME280;27838;43.858;25.974;2023-09-12T02:13:33;101129.84;;;22.86;45.24
42169;BME280;27838;43.858;25.974;2023-09-12T02:16:00;101136.34;;;22.78;45.48
42169;BME280;27838;43.858;25.974;2023-09-12T02:18:28;101122.41;;;22.73;45.58
42169;BME280;27838;43.858;25.974;2023-09-12T02:20:55;101135.72;;;22.73;45.56
42169;BME280;27838;43.858;25.974;2023-09-12T02:23:22;101133.97;;;22.72;45.62
42169;BME280;27838;43.858;25.974;2023-09-12T02:25:48;101135.72;;;22.73;45.39
42169;BME280;27838;43.858;25.974;2023-09-12T02:28:15;101137.47;;;22.73;45.64
42169;BME280;27838;43.858;25.974;2023-09-12T02:30:41;101135.72;;;22.73;44.95
42169;BME280;27838;43.858;25.974;2023-09-12T02:33:08;101148.91;;;22.75;45.29
42169;BME280;27838;43.858;25.974;2023-09-12T02:35:34;101141.16;;;22.70;45.50
42169;BME280;27838;43.858;25.974;2023-09-12T02:38:01;101146.53;;;22.69;45.10
42169;BME280;27838;43.858;25.974;2023-09-12T02:40:28;101142.19;;;22.66;45.25
42169;BME280;27838;43.858;25.974;2023-09-12T02:42:54;101142.53;;;22.58;45.71
42169;BME280;27838;43.858;25.974;2023-09-12T02:45:21;101146.13;;;22.57;46.74
42169;BME280;27838;43.858;25.974;2023-09-12T02:47:47;101150.44;;;22.60;46.41
42169;BME280;27838;43.858;25.974;2023-09-12T02:50:14;101147.72;;;22.61;46.71
42169;BME280;27838;43.858;25.974;2023-09-12T02:52:40;101150.16;;;22.66;47.15
42169;BME280;27838;43.858;25.974;2023-09-12T02:55:07;101152.03;;;22.64;46.19
42169;BME280;27838;43.858;25.974;2023-09-12T02:57:33;101149.44;;;22.62;45.65
42169;BME280;27838;43.858;25.974;2023-09-12T03:00:00;101148.59;;;22.62;45.81
42169;BME280;27838;43.858;25.974;2023-09-12T03:02:26;101149.50;;;22.61;45.43
42169;BME280;27838;43.858;25.974;2023-09-12T03:04:54;101150.56;;;22.57;45.23
42169;BME280;27838;43.858;25.974;2023-09-12T03:07:21;101156.91;;;22.54;45.24
42169;BME280;27838;43.858;25.974;2023-09-12T03:09:48;101158.53;;;22.57;45.22
42169;BME280;27838;43.858;25.974;2023-09-12T03:12:15;101147.06;;;22.56;44.87
42169;BME280;27838;43.858;25.974;2023-09-12T03:14:42;101155.88;;;22.57;44.84
42169;BME280;27838;43.858;25.974;2023-09-12T03:17:08;101157.75;;;22.55;44.70
42169;BME280;27838;43.858;25.974;2023-09-12T03:19:35;101158.88;;;22.49;44.91
42169;BME280;27838;43.858;25.974;2023-09-12T03:22:01;101156.28;;;22.48;44.64
42169;BME280;27838;43.858;25.974;2023-09-12T03:24:28;101160.75;;;22.47;44.57
42169;BME280;27838;43.858;25.974;2023-09-12T03:26:55;101159.06;;;22.44;44.56
42169;BME280;27838;43.858;25.974;2023-09-12T03:29:22;101157.50;;;22.40;44.79
42169;BME280;27838;43.858;25.974;2023-09-12T03:31:48;101163.78;;;22.38;44.78
42169;BME280;27838;43.858;25.974;2023-09-12T03:34:15;101160.25;;;22.37;44.71
42169;BME280;27838;43.858;25.974;2023-09-12T03:36:41;101160.25;;;22.37;44.55
42169;BME280;27838;43.858;25.974;2023-09-12T03:39:08;101162.81;;;22.40;44.65
42169;BME280;27838;43.858;25.974;2023-09-12T03:41:36;101166.44;;;22.38;44.76
42169;BME280;27838;43.858;25.974;2023-09-12T03:44:02;101163.03;;;22.34;44.60
42169;BME280;27838;43.858;25.974;2023-09-12T03:46:29;101160.50;;;22.31;44.77
42169;BME280;27838;43.858;25.974;2023-09-12T03:48:55;101158.03;;;22.27;44.85
42169;BME280;27838;43.858;25.974;2023-09-12T03:51:22;101159.00;;;22.24;45.01
42169;BME280;27838;43.858;25.974;2023-09-12T03:53:48;101154.66;;;22.23;44.99
42169;BME280;27838;43.858;25.974;2023-09-12T03:56:16;101161.66;;;22.24;44.83
42169;BME280;27838;43.858;25.974;2023-09-12T03:58:45;101162.63;;;22.23;44.73
42169;BME280;27838;43.858;25.974;2023-09-12T04:01:11;101155.75;;;22.17;44.67
42169;BME280;27838;43.858;25.974;2023-09-12T04:03:38;101155.50;;;22.23;44.73
42169;BME280;27838;43.858;25.974;2023-09-12T04:06:04;101161.88;;;22.19;45.02
42169;BME280;27838;43.858;25.974;2023-09-12T04:08:31;101167.31;;;22.16;45.19
42169;BME280;27838;43.858;25.974;2023-09-12T04:10:58;101163.06;;;22.12;45.21
42169;BME280;27838;43.858;25.974;2023-09-12T04:13:25;101161.50;;;22.06;45.12
42169;BME280;27838;43.858;25.974;2023-09-12T04:15:51;101170.41;;;22.05;45.05
42169;BME280;27838;43.858;25.974;2023-09-12T04:18:18;101173.81;;;22.09;44.68
42169;BME280;27838;43.858;25.974;2023-09-12T04:20:44;101172.91;;;22.09;44.74
42169;BME280;27838;43.858;25.974;2023-09-12T04:23:11;101157.31;;;22.01;44.88
42169;BME280;27838;43.858;25.974;2023-09-12T04:25:37;101178.09;;;22.12;44.75
42169;BME280;27838;43.858;25.974;2023-09-12T04:28:04;101178.06;;;22.13;44.92
42169;BME280;27838;43.858;25.974;2023-09-12T04:30:31;101171.88;;;22.13;44.77
42169;BME280;27838;43.858;25.974;2023-09-12T04:32:57;101183.13;;;22.19;44.68
42169;BME280;27838;43.858;25.974;2023-09-12T04:35:24;101178.66;;;22.20;44.53
42169;BME280;27838;43.858;25.974;2023-09-12T04:37:50;101178.59;;;22.21;44.69
42169;BME280;27838;43.858;25.974;2023-09-12T04:40:17;101181.25;;;22.21;44.74
42169;BME280;27838;43.858;25.974;2023-09-12T04:42:43;101179.53;;;22.20;44.81
42169;BME280;27838;43.858;25.974;2023-09-12T04:45:10;101176.63;;;22.27;44.80
42169;BME280;27838;43.858;25.974;2023-09-12T04:47:36;101179.03;;;22.33;44.64
42169;BME280;27838;43.858;25.974;2023-09-12T04:50:03;101184.03;;;22.40;44.33
42169;BME280;27838;43.858;25.974;2023-09-12T04:52:30;101182.00;;;22.47;43.90
42169;BME280;27838;43.858;25.974;2023-09-12T04:54:56;101184.31;;;22.55;43.56
42169;BME280;27838;43.858;25.974;2023-09-12T04:57:23;101194.41;;;22.67;43.34
42169;BME280;27838;43.858;25.974;2023-09-12T04:59:51;101185.25;;;22.74;43.10
42169;BME280;27838;43.858;25.974;2023-09-12T05:02:18;101190.31;;;22.80;42.77
42169;BME280;27838;43.858;25.974;2023-09-12T05:04:44;101186.69;;;22.81;42.80
42169;BME280;27838;43.858;25.974;2023-09-12T05:07:11;101195.19;;;22.90;42.70
42169;BME280;27838;43.858;25.974;2023-09-12T05:09:37;101200.22;;;22.96;42.53
42169;BME280;27838;43.858;25.974;2023-09-12T05:12:04;101203.63;;;22.99;42.57
42169;BME280;27838;43.858;25.974;2023-09-12T05:14:31;101194.56;;;23.05;42.39
42169;BME280;27838;43.858;25.974;2023-09-12T05:16:57;101199.66;;;23.10;42.32
42169;BME280;27838;43.858;25.974;2023-09-12T05:19:24;101197.81;;;23.12;42.08
42169;BME280;27838;43.858;25.974;2023-09-12T05:21:51;101196.88;;;23.13;42.29
42169;BME280;27838;43.858;25.974;2023-09-12T05:24:18;101189.91;;;23.10;42.36
42169;BME280;27838;43.858;25.974;2023-09-12T05:26:44;101193.34;;;23.12;42.33
42169;BME280;27838;43.858;25.974;2023-09-12T05:29:13;101190.56;;;23.15;42.15
42169;BME280;27838;43.858;25.974;2023-09-12T05:31:39;101188.56;;;23.21;42.10
42169;BME280;27838;43.858;25.974;2023-09-12T05:34:06;101192.84;;;23.23;42.03
42169;BME280;27838;43.858;25.974;2023-09-12T05:36:32;101189.03;;;23.29;41.49
42169;BME280;27838;43.858;25.974;2023-09-12T05:38:59;101187.81;;;23.36;41.54
42169;BME280;27838;43.858;25.974;2023-09-12T05:41:25;101184.97;;;23.41;41.03
42169;BME280;27838;43.858;25.974;2023-09-12T05:43:52;101188.22;;;23.47;40.70
42169;BME280;27838;43.858;25.974;2023-09-12T05:46:18;101189.66;;;23.54;40.33
42169;BME280;27838;43.858;25.974;2023-09-12T05:48:45;101190.28;;;23.60;39.95
42169;BME280;27838;43.858;25.974;2023-09-12T05:51:11;101188.56;;;23.59;39.05
42169;BME280;27838;43.858;25.974;2023-09-12T05:53:38;101186.53;;;23.64;39.22
42169;BME280;27838;43.858;25.974;2023-09-12T05:56:04;101194.44;;;23.65;38.71
42169;BME280;27838;43.858;25.974;2023-09-12T05:58:31;101195.31;;;23.66;38.68
42169;BME280;27838;43.858;25.974;2023-09-12T06:00:59;101194.31;;;23.68;38.69
42169;BME280;27838;43.858;25.974;2023-09-12T06:03:26;101192.22;;;23.75;37.99
42169;BME280;27838;43.858;25.974;2023-09-12T06:05:52;101187.41;;;23.83;38.09
42169;BME280;27838;43.858;25.974;2023-09-12T06:08:19;101195.19;;;23.88;37.77
42169;BME280;27838;43.858;25.974;2023-09-12T06:10:45;101199.19;;;23.97;37.84
42169;BME280;27838;43.858;25.974;2023-09-12T06:13:14;101202.50;;;24.02;37.79
42169;BME280;27838;43.858;25.974;2023-09-12T06:15:40;101193.34;;;24.07;37.17
42169;BME280;27838;43.858;25.974;2023-09-12T06:18:07;101195.78;;;24.12;37.16
42169;BME280;27838;43.858;25.974;2023-09-12T06:20:33;101203.63;;;24.15;37.07
42169;BME280;27838;43.858;25.974;2023-09-12T06:23:00;101202.31;;;24.24;36.87
42169;BME280;27838;43.858;25.974;2023-09-12T06:25:27;101207.25;;;24.31;36.73
42169;BME280;27838;43.858;25.974;2023-09-12T06:27:54;101202.56;;;24.37;36.51
42169;BME280;27838;43.858;25.974;2023-09-12T06:30:20;101212.91;;;24.43;36.79
42169;BME280;27838;43.858;25.974;2023-09-12T06:32:47;101215.47;;;24.44;36.33
42169;BME280;27838;43.858;25.974;2023-09-12T06:35:14;101213.69;;;24.45;36.26
42169;BME280;27838;43.858;25.974;2023-09-12T06:37:40;101218.78;;;24.49;36.04
42169;BME280;27838;43.858;25.974;2023-09-12T06:40:07;101224.81;;;24.53;36.17
42169;BME280;27838;43.858;25.974;2023-09-12T06:42:34;101220.00;;;24.61;35.90
42169;BME280;27838;43.858;25.974;2023-09-12T06:45:01;101222.19;;;24.71;35.92
42169;BME280;27838;43.858;25.974;2023-09-12T06:47:27;101226.59;;;24.72;36.00
42169;BME280;27838;43.858;25.974;2023-09-12T06:49:54;101224.63;;;24.75;35.72
42169;BME280;27838;43.858;25.974;2023-09-12T06:52:20;101220.91;;;24.78;35.90
42169;BME280;27838;43.858;25.974;2023-09-12T06:54:47;101218.25;;;24.78;35.49
42169;BME280;27838;43.858;25.974;2023-09-12T06:57:13;101225.09;;;24.83;35.43
42169;BME280;27838;43.858;25.974;2023-09-12T06:59:40;101222.97;;;24.90;35.24
42169;BME280;27838;43.858;25.974;2023-09-12T07:02:07;101223.34;;;25.00;35.36
42169;BME280;27838;43.858;25.974;2023-09-12T07:04:35;101227.31;;;25.09;35.52
42169;BME280;27838;43.858;25.974;2023-09-12T07:07:01;101228.56;;;25.19;34.95
42169;BME280;27838;43.858;25.974;2023-09-12T07:09:29;101222.09;;;25.23;34.79
42169;BME280;27838;43.858;25.974;2023-09-12T07:11:56;101221.06;;;25.27;35.19
42169;BME280;27838;43.858;25.974;2023-09-12T07:14:22;101223.44;;;25.32;35.29
42169;BME280;27838;43.858;25.974;2023-09-12T07:16:50;101222.28;;;25.37;35.47
42169;BME280;27838;43.858;25.974;2023-09-12T07:19:17;101229.16;;;25.41;35.79
42169;BME280;27838;43.858;25.974;2023-09-12T07:21:43;101238.19;;;25.39;35.87
42169;BME280;27838;43.858;25.974;2023-09-12T07:24:10;101230.00;;;25.42;35.99
42169;BME280;27838;43.858;25.974;2023-09-12T07:26:36;101242.00;;;25.51;35.95
42169;BME280;27838;43.858;25.974;2023-09-12T07:29:03;101237.25;;;25.56;35.50
42169;BME280;27838;43.858;25.974;2023-09-12T07:31:31;101234.19;;;25.63;35.37
42169;BME280;27838;43.858;25.974;2023-09-12T07:33:58;101240.03;;;25.70;34.70
42169;BME280;27838;43.858;25.974;2023-09-12T07:36:24;101239.53;;;25.79;34.69
42169;BME280;27838;43.858;25.974;2023-09-12T07:38:51;101242.81;;;25.85;34.08
42169;BME280;27838;43.858;25.974;2023-09-12T07:41:17;101240.84;;;25.88;34.20
42169;BME280;27838;43.858;25.974;2023-09-12T07:43:44;101242.38;;;25.92;33.58
42169;BME280;27838;43.858;25.974;2023-09-12T07:46:10;101239.66;;;25.94;33.83
42169;BME280;27838;43.858;25.974;2023-09-12T07:48:37;101233.19;;;25.98;33.94
42169;BME280;27838;43.858;25.974;2023-09-12T07:51:14;101241.97;;;26.00;33.79
42169;BME280;27838;43.858;25.974;2023-09-12T07:53:43;101247.06;;;26.05;34.00
42169;BME280;27838;43.858;25.974;2023-09-12T07:56:09;101239.63;;;26.10;34.02
42169;BME280;27838;43.858;25.974;2023-09-12T07:58:36;101234.72;;;26.18;34.39
42169;BME280;27838;43.858;25.974;2023-09-12T08:01:09;101231.59;;;26.26;33.97
42169;BME280;27838;43.858;25.974;2023-09-12T08:03:37;101223.91;;;26.35;33.11
42169;BME280;27838;43.858;25.974;2023-09-12T08:06:04;101227.88;;;26.44;32.73
42169;BME280;27838;43.858;25.974;2023-09-12T08:08:32;101236.38;;;26.51;32.40
42169;BME280;27838;43.858;25.974;2023-09-12T08:10:58;101229.13;;;26.53;32.79
42169;BME280;27838;43.858;25.974;2023-09-12T08:13:29;101230.56;;;26.59;32.19
42169;BME280;27838;43.858;25.974;2023-09-12T08:15:56;101228.34;;;26.67;32.09
42169;BME280;27838;43.858;25.974;2023-09-12T08:18:26;101233.91;;;26.78;32.18
42169;BME280;27838;43.858;25.974;2023-09-12T08:20:53;101227.81;;;26.90;32.18
42169;BME280;27838;43.858;25.974;2023-09-12T08:23:20;101227.44;;;26.97;31.55
42169;BME280;27838;43.858;25.974;2023-09-12T08:25:47;101228.97;;;27.01;31.47
42169;BME280;27838;43.858;25.974;2023-09-12T08:28:13;101222.38;;;27.06;32.18
42169;BME280;27838;43.858;25.974;2023-09-12T08:30:40;101216.47;;;27.16;32.12
42169;BME280;27838;43.858;25.974;2023-09-12T08:33:06;101219.41;;;27.25;31.74
42169;BME280;27838;43.858;25.974;2023-09-12T08:35:33;101216.19;;;27.35;31.42
42169;BME280;27838;43.858;25.974;2023-09-12T08:38:00;101221.16;;;27.41;31.59
42169;BME280;27838;43.858;25.974;2023-09-12T08:40:26;101214.28;;;27.51;31.51
42169;BME280;27838;43.858;25.974;2023-09-12T08:42:56;101207.28;;;27.63;31.64
42169;BME280;27838;43.858;25.974;2023-09-12T08:45:23;101207.72;;;27.69;31.43
42169;BME280;27838;43.858;25.974;2023-09-12T08:47:53;101211.53;;;27.80;31.69
42169;BME280;27838;43.858;25.974;2023-09-12T08:50:20;101209.91;;;27.92;31.44
42169;BME280;27838;43.858;25.974;2023-09-12T08:52:48;101209.00;;;28.05;31.06
42169;BME280;27838;43.858;25.974;2023-09-12T08:55:15;101205.69;;;28.15;30.48
42169;BME280;27838;43.858;25.974;2023-09-12T08:57:43;101208.94;;;28.20;30.57
42169;BME280;27838;43.858;25.974;2023-09-12T09:00:10;101206.50;;;28.30;30.47
42169;BME280;27838;43.858;25.974;2023-09-12T09:02:39;101210.94;;;28.43;30.13
42169;BME280;27838;43.858;25.974;2023-09-12T09:05:07;101210.78;;;28.59;29.40
42169;BME280;27838;43.858;25.974;2023-09-12T09:07:36;101205.13;;;28.64;28.81
42169;BME280;27838;43.858;25.974;2023-09-12T09:10:13;101206.97;;;28.76;29.05
42169;BME280;27838;43.858;25.974;2023-09-12T09:12:40;101208.00;;;28.87;28.63
42169;BME280;27838;43.858;25.974;2023-09-12T09:15:28;101202.22;;;28.93;27.97
42169;BME280;27838;43.858;25.974;2023-09-12T09:17:57;101193.00;;;28.97;28.08
42169;BME280;27838;43.858;25.974;2023-09-12T09:20:33;101189.03;;;29.03;27.89
42169;BME280;27838;43.858;25.974;2023-09-12T09:23:05;101193.41;;;29.04;27.44
42169;BME280;27838;43.858;25.974;2023-09-12T09:25:35;101199.78;;;29.15;27.58
42169;BME280;27838;43.858;25.974;2023-09-12T09:28:19;101196.31;;;29.26;27.89
42169;BME280;27838;43.858;25.974;2023-09-12T09:30:50;101188.69;;;29.33;27.39
42169;BME280;27838;43.858;25.974;2023-09-12T09:33:20;101179.13;;;29.42;27.16
42169;BME280;27838;43.858;25.974;2023-09-12T09:35:48;101181.75;;;29.54;27.13
42169;BME280;27838;43.858;25.974;2023-09-12T09:38:19;101183.28;;;29.59;27.49
42169;BME280;27838;43.858;25.974;2023-09-12T09:40:48;101177.00;;;29.71;27.54
42169;BME280;27838;43.858;25.974;2023-09-12T09:43:22;101179.13;;;29.79;26.76
42169;BME280;27838;43.858;25.974;2023-09-12T09:45:50;101178.19;;;29.80;26.53
42169;BME280;27838;43.858;25.974;2023-09-12T09:48:21;101177.81;;;29.84;26.81
42169;BME280;27838;43.858;25.974;2023-09-12T09:50:48;101170.38;;;29.88;26.98
42169;BME280;27838;43.858;25.974;2023-09-12T09:53:14;101175.53;;;29.91;26.71
42169;BME280;27838;43.858;25.974;2023-09-12T09:55:41;101176.06;;;29.96;26.81
42169;BME280;27838;43.858;25.974;2023-09-12T09:58:08;101165.72;;;30.14;26.83
42169;BME280;27838;43.858;25.974;2023-09-12T10:00:36;101171.06;;;30.27;26.82
42169;BME280;27838;43.858;25.974;2023-09-12T10:03:04;101164.16;;;30.36;26.82
42169;BME280;27838;43.858;25.974;2023-09-12T10:05:37;101161.47;;;30.47;26.48
42169;BME280;27838;43.858;25.974;2023-09-12T10:08:07;101163.94;;;30.50;26.29
42169;BME280;27838;43.858;25.974;2023-09-12T10:10:35;101156.38;;;30.55;26.48
42169;BME280;27838;43.858;25.974;2023-09-12T10:13:05;101155.88;;;30.61;26.47
42169;BME280;27838;43.858;25.974;2023-09-12T10:15:33;101149.91;;;30.69;26.13
42169;BME280;27838;43.858;25.974;2023-09-12T10:18:04;101155.16;;;30.82;25.82
42169;BME280;27838;43.858;25.974;2023-09-12T10:20:43;101147.34;;;30.90;26.14
42169;BME280;27838;43.858;25.974;2023-09-12T10:23:35;101154.94;;;30.96;25.92
42169;BME280;27838;43.858;25.974;2023-09-12T10:26:09;101149.94;;;31.03;25.35
42169;BME280;27838;43.858;25.974;2023-09-12T10:28:41;101154.97;;;31.08;25.21
42169;BME280;27838;43.858;25.974;2023-09-12T10:31:11;101142.72;;;31.15;25.35
42169;BME280;27838;43.858;25.974;2023-09-12T10:33:38;101148.47;;;31.21;24.72
42169;BME280;27838;43.858;25.974;2023-09-12T10:36:08;101145.41;;;31.15;24.65
42169;BME280;27838;43.858;25.974;2023-09-12T10:38:42;101134.16;;;31.21;25.07
42169;BME280;27838;43.858;25.974;2023-09-12T10:41:13;101132.16;;;31.34;25.06
42169;BME280;27838;43.858;25.974;2023-09-12T10:43:42;101131.03;;;31.48;24.67
42169;BME280;27838;43.858;25.974;2023-09-12T10:46:11;101130.06;;;31.60;24.24
42169;BME280;27838;43.858;25.974;2023-09-12T10:48:38;101122.97;;;31.59;24.47
42169;BME280;27838;43.858;25.974;2023-09-12T10:51:06;101125.06;;;31.56;24.18
42169;BME280;27838;43.858;25.974;2023-09-12T10:53:33;101117.19;;;31.64;24.81
42169;BME280;27838;43.858;25.974;2023-09-12T10:56:14;101121.06;;;31.71;24.50
42169;BME280;27838;43.858;25.974;2023-09-12T11:01:32;101117.47;;;31.82;24.28
42169;BME280;27838;43.858;25.974;2023-09-12T11:06:47;101107.56;;;31.83;23.87
42169;BME280;27838;43.858;25.974;2023-09-12T11:11:42;101108.63;;;31.91;24.37
42169;BME280;27838;43.858;25.974;2023-09-12T11:14:09;101107.25;;;31.97;24.81
42169;BME280;27838;43.858;25.974;2023-09-12T11:16:36;101102.34;;;32.02;24.92
42169;BME280;27838;43.858;25.974;2023-09-12T11:19:21;101096.78;;;32.15;24.18
42169;BME280;27838;43.858;25.974;2023-09-12T11:21:53;101098.38;;;32.17;24.14
42169;BME280;27838;43.858;25.974;2023-09-12T11:24:21;101097.81;;;32.24;24.46
42169;BME280;27838;43.858;25.974;2023-09-12T11:26:59;101095.31;;;32.32;24.11
42169;BME280;27838;43.858;25.974;2023-09-12T11:31:58;101082.97;;;32.29;23.96
42169;BME280;27838;43.858;25.974;2023-09-12T11:34:26;101089.81;;;32.33;24.16
42169;BME280;27838;43.858;25.974;2023-09-12T11:36:58;101084.53;;;32.32;24.00
42169;BME280;27838;43.858;25.974;2023-09-12T11:39:29;101083.94;;;32.28;23.96
42169;BME280;27838;43.858;25.974;2023-09-12T11:41:58;101079.41;;;32.29;23.92
42169;BME280;27838;43.858;25.974;2023-09-12T11:44:25;101079.41;;;32.29;24.30
42169;BME280;27838;43.858;25.974;2023-09-12T11:46:53;101078.56;;;32.28;23.93
42169;BME280;27838;43.858;25.974;2023-09-12T11:49:20;101079.53;;;32.27;24.23
42169;BME280;27838;43.858;25.974;2023-09-12T11:51:51;101076.25;;;32.24;24.50
42169;BME280;27838;43.858;25.974;2023-09-12T11:54:18;101072.56;;;32.25;24.18
42169;BME280;27838;43.858;25.974;2023-09-12T11:56:49;101071.72;;;32.24;24.14
42169;BME280;27838;43.858;25.974;2023-09-12T11:59:22;101063.47;;;32.26;24.50
42169;BME280;27838;43.858;25.974;2023-09-12T12:01:49;101066.19;;;32.26;24.30
42169;BME280;27838;43.858;25.974;2023-09-12T12:04:16;101064.34;;;32.26;24.42
42169;BME280;27838;43.858;25.974;2023-09-12T12:06:43;101059.81;;;32.27;24.48
42169;BME280;27838;43.858;25.974;2023-09-12T12:09:10;101057.38;;;32.24;24.36
42169;BME280;27838;43.858;25.974;2023-09-12T12:11:36;101050.28;;;32.23;24.47
42169;BME280;27838;43.858;25.974;2023-09-12T12:14:15;101049.28;;;32.24;24.72
42169;BME280;27838;43.858;25.974;2023-09-12T12:16:45;101051.34;;;32.10;23.84
42169;BME280;27838;43.858;25.974;2023-09-12T12:19:13;101052.22;;;31.99;24.43
42169;BME280;27838;43.858;25.974;2023-09-12T12:21:41;101047.25;;;31.95;24.66
42169;BME280;27838;43.858;25.974;2023-09-12T12:24:13;101040.59;;;31.99;24.59
42169;BME280;27838;43.858;25.974;2023-09-12T12:26:41;101040.59;;;31.99;24.07
42169;BME280;27838;43.858;25.974;2023-09-12T12:29:09;101048.22;;;31.94;24.06
42169;BME280;27838;43.858;25.974;2023-09-12T12:31:36;101046.78;;;31.90;24.02
42169;BME280;27838;43.858;25.974;2023-09-12T12:34:04;101040.53;;;31.89;24.40
42169;BME280;27838;43.858;25.974;2023-09-12T12:36:32;101043.06;;;31.91;24.52
42169;BME280;27838;43.858;25.974;2023-09-12T12:38:59;101048.34;;;31.92;24.31
42169;BME280;27838;43.858;25.974;2023-09-12T12:41:29;101040.00;;;31.95;24.43
42169;BME280;27838;43.858;25.974;2023-09-12T12:44:01;101034.59;;;31.95;24.09
42169;BME280;27838;43.858;25.974;2023-09-12T12:46:29;101031.06;;;31.95;24.30
42169;BME280;27838;43.858;25.974;2023-09-12T12:48:55;101032.25;;;32.02;24.18
42169;BME280;27838;43.858;25.974;2023-09-12T12:51:25;101030.03;;;32.07;24.15
42169;BME280;27838;43.858;25.974;2023-09-12T12:54:02;101031.47;;;32.11;24.05
42169;BME280;27838;43.858;25.974;2023-09-12T12:56:29;101031.34;;;32.13;24.19
42169;BME280;27838;43.858;25.974;2023-09-12T12:58:58;101030.25;;;32.15;23.80
42169;BME280;27838;43.858;25.974;2023-09-12T13:01:27;101026.53;;;32.16;23.75